createdAt,value
2022-09-18T00:02:29.282Z,99492.77
2022-09-18T00:05:56.156Z,99487.69
2022-09-18T00:09:23.013Z,99492.16
2022-09-18T00:12:49.739Z,99490.55
2022-09-18T00:16:18.612Z,99489.27
2022-09-18T00:19:45.893Z,99488.37
2022-09-18T00:23:12.895Z,99481.59
2022-09-18T00:26:40.143Z,99478.80
2022-09-18T00:30:08.479Z,99473.91
2022-09-18T00:33:36.057Z,99473.55
2022-09-18T00:37:04.054Z,99473.19
2022-09-18T00:40:31.273Z,99474.89
2022-09-18T00:44:12.469Z,99478.02
2022-09-18T00:47:43.443Z,99479.69
2022-09-18T00:51:10.600Z,99476.68
2022-09-18T00:54:41.292Z,99477.00
2022-09-18T00:58:10.535Z,99480.23
2022-09-18T01:01:37.316Z,99481.19
2022-09-18T01:05:04.698Z,99482.16
2022-09-18T01:08:48.608Z,99476.89
2022-09-18T01:12:23.965Z,99472.35
2022-09-18T01:15:57.676Z,99468.88
2022-09-18T01:19:50.493Z,99466.39
2022-09-18T01:23:40.702Z,99464.12
2022-09-18T01:27:11.344Z,99462.20
2022-09-18T01:30:42.796Z,99458.86
2022-09-18T01:34:18.142Z,99456.70
2022-09-18T01:37:52.087Z,99460.65
2022-09-18T01:41:24.150Z,99462.15
2022-09-18T01:44:55.379Z,99467.29
2022-09-18T01:48:28.536Z,99472.27
2022-09-18T01:52:02.407Z,99465.80
2022-09-18T01:55:31.943Z,99463.50
2022-09-18T01:59:03.641Z,99463.84
2022-09-18T02:02:47.399Z,99468.45
2022-09-18T02:06:20.440Z,99468.03
2022-09-18T02:09:47.975Z,99471.66
2022-09-18T02:13:19.472Z,99473.38
2022-09-18T02:16:49.396Z,99467.16
2022-09-18T02:20:20.801Z,99461.11
2022-09-18T02:23:48.489Z,99455.91
2022-09-18T02:27:17.495Z,99454.36
2022-09-18T02:30:45.356Z,99451.59
2022-09-18T02:34:14.465Z,99454.36
2022-09-18T02:37:52.512Z,99452.63
2022-09-18T02:41:27.999Z,99450.57
2022-09-18T02:45:07.417Z,99452.28
2022-09-18T02:48:56.863Z,99453.89
2022-09-18T02:52:30.949Z,99449.23
2022-09-18T02:56:04.234Z,99445.77
2022-09-18T02:59:38.968Z,99448.89
2022-09-18T03:03:06.985Z,99448.70
2022-09-18T03:06:43.343Z,99451.62
2022-09-18T03:10:13.431Z,99452.13
2022-09-18T03:13:38.579Z,99455.74
2022-09-18T03:17:06.023Z,99453.84
2022-09-18T03:20:32.732Z,99452.48
2022-09-18T03:24:03.420Z,99456.90
2022-09-18T03:27:31.588Z,99455.86
2022-09-18T03:31:00.196Z,99454.84
2022-09-18T03:34:27.885Z,99459.20
2022-09-18T03:37:56.027Z,99460.63
2022-09-18T03:41:25.908Z,99463.63
2022-09-18T03:44:52.937Z,99461.95
2022-09-18T03:48:27.346Z,99460.44
2022-09-18T03:51:54.548Z,99458.58
2022-09-18T03:55:22.698Z,99457.80
2022-09-18T03:59:12.540Z,99459.31
2022-09-18T04:03:11.839Z,99461.76
2022-09-18T04:07:18.359Z,99465.08
2022-09-18T04:11:12.691Z,99463.54
2022-09-18T04:14:39.604Z,99466.14
2022-09-18T04:18:07.882Z,99465.42
2022-09-18T04:21:35.269Z,99462.96
2022-09-18T04:25:02.075Z,99464.31
2022-09-18T04:28:29.192Z,99466.70
2022-09-18T04:31:56.526Z,99468.56
2022-09-18T04:35:26.079Z,99469.56
2022-09-18T04:38:52.830Z,99472.16
2022-09-18T04:42:20.519Z,99470.55
2022-09-18T04:45:49.828Z,99469.45
2022-09-18T04:49:17.002Z,99466.29
2022-09-18T04:52:44.431Z,99467.30
2022-09-18T04:56:11.073Z,99462.04
2022-09-18T04:59:39.900Z,99462.69
2022-09-18T05:03:08.558Z,99464.91
2022-09-18T05:06:37.884Z,99468.15
2022-09-18T05:10:05.044Z,99462.86
2022-09-18T05:13:33.219Z,99465.57
2022-09-18T05:17:04.643Z,99469.83
2022-09-18T05:20:37.042Z,99469.58
2022-09-18T05:24:06.877Z,99469.50
2022-09-18T05:27:33.849Z,99465.40
2022-09-18T05:31:02.899Z,99462.17
2022-09-18T05:34:37.643Z,99460.16
2022-09-18T05:38:05.704Z,99463.41
2022-09-18T05:41:32.485Z,99461.56
2022-09-18T05:45:02.146Z,99460.96
2022-09-18T05:48:30.010Z,99465.05
2022-09-18T05:51:58.983Z,99465.45
2022-09-18T05:55:31.880Z,99465.67
2022-09-18T05:58:59.881Z,99468.52
2022-09-18T06:02:29.330Z,99469.27
2022-09-18T06:06:01.840Z,99470.87
2022-09-18T06:09:28.881Z,99472.30
2022-09-18T06:13:02.920Z,99479.63
2022-09-18T06:16:29.885Z,99482.30
2022-09-18T06:20:00.516Z,99484.95
2022-09-18T06:23:29.647Z,99483.77
2022-09-18T06:27:06.895Z,99480.69
2022-09-18T06:30:36.169Z,99482.82
2022-09-18T06:34:03.463Z,99480.59
2022-09-18T06:37:30.528Z,99480.81
2022-09-18T06:41:10.038Z,99477.02
2022-09-18T06:44:47.718Z,99472.89
2022-09-18T06:48:15.487Z,99472.05
2022-09-18T06:51:42.590Z,99472.64
2022-09-18T06:55:11.807Z,99472.46
2022-09-18T06:58:38.644Z,99475.63
2022-09-18T07:02:06.132Z,99474.93
2022-09-18T07:05:54.766Z,99478.07
2022-09-18T07:09:30.716Z,99478.93
2022-09-18T07:13:03.279Z,99479.11
2022-09-18T07:16:32.012Z,99479.63
2022-09-18T07:19:59.047Z,99482.77
2022-09-18T07:23:35.953Z,99486.09
2022-09-18T07:27:03.032Z,99487.46
2022-09-18T07:30:29.783Z,99487.09
2022-09-18T07:33:57.882Z,99487.59
2022-09-18T07:37:28.284Z,99486.50
2022-09-18T07:41:10.191Z,99486.27
2022-09-18T07:44:40.580Z,99488.32
2022-09-18T07:48:08.642Z,99490.39
2022-09-18T07:51:40.387Z,99492.11
2022-09-18T07:55:08.631Z,99490.87
2022-09-18T07:58:36.987Z,99497.14
2022-09-18T08:02:07.098Z,99496.58
2022-09-18T08:05:36.970Z,99495.84
2022-09-18T08:09:05.284Z,99496.15
2022-09-18T08:12:58.273Z,99498.04
2022-09-18T08:16:32.203Z,99504.39
2022-09-18T08:20:12.578Z,99501.64
2022-09-18T08:23:54.689Z,99501.02
2022-09-18T08:27:22.664Z,99499.67
2022-09-18T08:30:51.765Z,99502.17
2022-09-18T08:34:19.949Z,99501.89
2022-09-18T08:37:51.991Z,99503.37
2022-09-18T08:52:18.938Z,99501.05
2022-09-18T08:55:54.594Z,99505.64
2022-09-18T08:59:41.720Z,99508.27
2022-09-18T09:03:24.888Z,99507.45
2022-09-18T09:07:10.034Z,99512.44
2022-09-18T09:10:52.738Z,99511.40
2022-09-18T09:14:52.736Z,99513.14
2022-09-18T09:18:23.554Z,99516.48
2022-09-18T09:22:00.820Z,99512.98
2022-09-18T09:25:34.426Z,99515.33
2022-09-18T09:29:16.833Z,99521.73
2022-09-18T09:33:08.266Z,99523.02
2022-09-18T09:36:45.310Z,99523.61
2022-09-18T09:40:20.035Z,99527.89
2022-09-18T09:43:54.978Z,99533.06
2022-09-18T09:47:35.960Z,99533.03
2022-09-18T09:51:10.078Z,99534.56
2022-09-18T09:54:37.436Z,99541.84
2022-09-18T09:58:14.169Z,99544.86
2022-09-18T10:01:49.488Z,99548.06
2022-09-18T10:05:25.167Z,99550.23
2022-09-18T10:08:58.677Z,99552.51
2022-09-18T10:12:34.483Z,99555.00
2022-09-18T10:16:08.712Z,99566.14
2022-09-18T10:19:41.240Z,99566.27
2022-09-18T10:23:14.968Z,99572.45
2022-09-18T10:26:45.841Z,99576.67
2022-09-18T10:30:16.709Z,99582.67
2022-09-18T10:33:51.348Z,99584.73
2022-09-18T10:37:40.824Z,99591.97
2022-09-18T10:41:34.368Z,99597.71
2022-09-18T10:45:05.381Z,99603.77
2022-09-18T10:48:36.450Z,99610.19
2022-09-18T10:52:32.151Z,99610.06
2022-09-18T10:56:14.313Z,99613.20
2022-09-18T10:59:42.840Z,99615.81
2022-09-18T11:03:34.814Z,99618.57
2022-09-18T11:07:07.706Z,99613.91
2022-09-18T11:10:38.308Z,99612.86
2022-09-18T11:14:08.415Z,99614.39
2022-09-18T11:17:53.801Z,99617.39
2022-09-18T11:21:22.954Z,99612.86
2022-09-18T11:25:07.345Z,99612.81
2022-09-18T11:28:36.240Z,99608.91
2022-09-18T11:32:11.660Z,99607.33
2022-09-18T11:35:48.309Z,99602.84
2022-09-18T11:39:24.390Z,99601.88
2022-09-18T11:42:55.941Z,99600.17
2022-09-18T11:46:34.302Z,99601.96
2022-09-18T11:50:17.883Z,99602.23
2022-09-18T11:53:49.320Z,99595.95
2022-09-18T11:57:22.064Z,99591.98
2022-09-18T12:00:52.788Z,99590.33
2022-09-18T12:04:27.938Z,99575.57
2022-09-18T12:08:04.179Z,99574.88
2022-09-18T12:11:37.421Z,99572.70
2022-09-18T12:15:12.991Z,99570.17
2022-09-18T12:18:49.512Z,99563.73
2022-09-18T12:22:21.869Z,99555.67
2022-09-18T12:26:05.069Z,99556.29
2022-09-18T12:29:55.649Z,99551.17
2022-09-18T12:33:37.216Z,99543.92
2022-09-18T12:37:18.881Z,99541.39
2022-09-18T12:41:07.908Z,99540.59
2022-09-18T12:45:06.091Z,99539.02
2022-09-18T12:48:46.857Z,99539.44
2022-09-18T12:52:30.442Z,99533.35
2022-09-18T12:56:11.227Z,99536.25
2022-09-18T12:59:54.243Z,99524.41
2022-09-18T13:03:26.412Z,99528.69
2022-09-18T13:06:57.856Z,99526.06
2022-09-18T13:10:29.357Z,99523.61
2022-09-18T13:14:03.597Z,99522.64
2022-09-18T13:17:37.499Z,99527.73
2022-09-18T13:21:10.138Z,99530.02
2022-09-18T13:24:40.040Z,99533.73
2022-09-18T13:28:12.709Z,99539.89
2022-09-18T13:31:39.463Z,99536.51
2022-09-18T13:35:19.585Z,99536.55
2022-09-18T13:38:49.086Z,99535.23
2022-09-18T13:42:15.753Z,99536.77
2022-09-18T13:45:42.824Z,99537.27
2022-09-18T13:49:29.031Z,99544.48
2022-09-18T13:52:57.986Z,99542.17
2022-09-18T13:56:53.213Z,99538.23
2022-09-18T14:00:42.622Z,99542.70
2022-09-18T14:05:08.168Z,99534.04
2022-09-18T14:08:41.971Z,99544.02
2022-09-18T14:12:16.745Z,99542.99
2022-09-18T14:15:55.937Z,99540.24
2022-09-18T14:19:32.490Z,99536.97
2022-09-18T14:23:19.238Z,99535.57
2022-09-18T14:27:28.362Z,99533.92
2022-09-18T14:31:12.944Z,99535.91
2022-09-18T14:34:42.455Z,99535.09
2022-09-18T14:38:19.235Z,99535.30
2022-09-18T14:41:45.929Z,99536.59
2022-09-18T14:45:24.093Z,99537.42
2022-09-18T14:48:51.658Z,99546.66
2022-09-18T14:52:23.125Z,99552.03
2022-09-18T14:55:55.878Z,99550.52
2022-09-18T14:59:24.172Z,99546.34
2022-09-18T15:02:55.239Z,99546.58
2022-09-18T15:06:24.781Z,99546.95
2022-09-18T15:09:55.160Z,99552.96
2022-09-18T15:13:23.316Z,99552.66
2022-09-18T15:16:57.000Z,99551.45
2022-09-18T15:20:25.688Z,99555.92
2022-09-18T15:24:40.930Z,99556.63
2022-09-18T15:28:09.256Z,99561.23
2022-09-18T15:31:36.462Z,99562.59
2022-09-18T15:35:03.987Z,99562.81
2022-09-18T15:38:38.892Z,99563.40
2022-09-18T15:42:27.370Z,99560.77
2022-09-18T15:46:07.013Z,99559.73
2022-09-18T15:49:37.339Z,99553.59
2022-09-18T15:53:17.196Z,99558.05
2022-09-18T15:56:53.559Z,99557.37
2022-09-18T16:00:22.538Z,99557.27
2022-09-18T16:03:50.254Z,99559.89
2022-09-18T16:07:24.974Z,99558.66
2022-09-18T16:10:53.858Z,99561.64
2022-09-18T16:14:46.352Z,99564.58
2022-09-18T16:18:29.453Z,99570.33
2022-09-18T16:21:56.286Z,99568.16
2022-09-18T16:25:26.534Z,99570.02
2022-09-18T16:28:54.581Z,99573.62
2022-09-18T16:32:22.060Z,99573.22
2022-09-18T16:35:55.578Z,99577.53
2022-09-18T16:39:25.526Z,99579.23
2022-09-18T16:42:50.947Z,99583.52
2022-09-18T16:46:20.736Z,99589.38
2022-09-18T16:50:26.308Z,99593.77
2022-09-18T17:04:34.064Z,99600.27
2022-09-18T17:13:35.515Z,99596.39
2022-09-18T17:17:02.564Z,99602.27
2022-09-18T17:20:29.308Z,99605.70
2022-09-18T17:23:57.747Z,99611.71
2022-09-18T17:27:25.896Z,99609.20
2022-09-18T17:30:54.627Z,99613.30
2022-09-18T17:34:22.273Z,99622.79
2022-09-18T17:37:51.989Z,99626.55
2022-09-18T17:41:18.430Z,99629.58
2022-09-18T17:44:45.172Z,99626.87
2022-09-18T17:48:12.333Z,99628.34
2022-09-18T17:51:39.593Z,99628.95
2022-09-18T17:55:07.852Z,99628.51
2022-09-18T17:58:39.032Z,99627.89
2022-09-18T18:02:06.048Z,99631.82
2022-09-18T18:05:33.169Z,99632.30
2022-09-18T18:09:00.171Z,99627.20
2022-09-18T18:12:27.405Z,99627.33
2022-09-18T18:15:54.312Z,99627.42
2022-09-18T18:19:21.351Z,99627.33
2022-09-18T18:22:48.609Z,99629.16
2022-09-18T18:26:40.545Z,99631.48
2022-09-18T18:30:10.165Z,99631.02
2022-09-18T18:33:38.024Z,99630.39
2022-09-18T18:41:20.146Z,99632.58
2022-09-18T18:44:47.851Z,99637.51
2022-09-18T18:48:15.310Z,99638.47
2022-09-18T18:51:45.535Z,99638.56
2022-09-18T18:55:12.971Z,99635.88
2022-09-18T18:58:41.214Z,99635.80
2022-09-18T19:02:10.740Z,99637.96
2022-09-18T19:05:39.069Z,99634.95
2022-09-18T19:09:09.315Z,99631.40
2022-09-18T19:12:36.084Z,99637.78
2022-09-18T19:16:05.914Z,99634.61
2022-09-18T19:19:31.296Z,99637.68
2022-09-18T19:22:58.482Z,99637.45
2022-09-18T19:26:27.757Z,99640.86
2022-09-18T19:29:54.464Z,99642.20
2022-09-18T19:33:23.138Z,99642.33
2022-09-18T19:36:51.987Z,99645.35
2022-09-18T19:40:19.222Z,99644.74
2022-09-18T19:43:46.505Z,99643.61
2022-09-18T19:47:20.147Z,99643.17
2022-09-18T19:50:47.321Z,99646.02
2022-09-18T19:54:14.733Z,99643.02
2022-09-18T19:57:41.777Z,99643.99
2022-09-18T20:01:11.816Z,99641.84
2022-09-18T20:04:40.931Z,99639.16
2022-09-18T20:08:08.511Z,99642.04
2022-09-18T20:11:35.295Z,99644.41
2022-09-18T20:15:03.728Z,99643.00
2022-09-18T20:18:31.237Z,99645.61
2022-09-18T20:21:57.910Z,99644.16
2022-09-18T20:25:26.151Z,99646.23
2022-09-18T20:28:52.976Z,99641.86
2022-09-18T20:32:20.123Z,99641.33
2022-09-18T20:35:54.443Z,99642.16
2022-09-18T20:39:21.682Z,99644.95
2022-09-18T20:42:52.589Z,99643.93
2022-09-18T20:46:20.482Z,99643.63
2022-09-18T20:49:49.838Z,99642.89
2022-09-18T20:53:16.302Z,99647.19
2022-09-18T20:56:44.757Z,99647.66
2022-09-18T21:00:16.275Z,99649.86
2022-09-18T21:03:45.035Z,99648.77
2022-09-18T21:07:11.643Z,99650.48
2022-09-18T21:10:46.797Z,99651.49
2022-09-18T21:14:16.689Z,99652.52
2022-09-18T21:17:42.759Z,99656.15
2022-09-18T21:21:13.212Z,99656.17
2022-09-18T21:24:39.969Z,99655.00
2022-09-18T21:28:07.257Z,99660.64
2022-09-18T21:31:42.557Z,99658.99
2022-09-18T21:35:11.375Z,99659.81
2022-09-18T21:38:39.819Z,99657.49
2022-09-18T21:42:08.508Z,99661.59
2022-09-18T21:45:40.295Z,99660.98
2022-09-18T21:49:08.859Z,99661.92
2022-09-18T21:52:35.520Z,99663.39
2022-09-18T21:56:07.786Z,99662.11
2022-09-18T21:59:36.523Z,99656.47
2022-09-18T22:03:03.432Z,99652.91
2022-09-18T22:06:32.553Z,99650.05
2022-09-18T22:09:59.510Z,99651.84
2022-09-18T22:13:26.219Z,99649.41
2022-09-18T22:16:55.575Z,99647.30
2022-09-18T22:20:22.887Z,99648.29
2022-09-18T22:23:50.893Z,99651.33
2022-09-18T22:27:18.147Z,99653.15
2022-09-18T22:30:44.936Z,99655.47
2022-09-18T22:34:12.461Z,99659.70
2022-09-18T22:37:39.115Z,99662.36
2022-09-18T22:41:08.158Z,99662.55
2022-09-18T22:44:34.844Z,99659.11
2022-09-18T22:48:01.407Z,99657.57
2022-09-18T22:51:29.774Z,99661.76
